Time;durP1;ratioP1;P1;durP2;ratioP2;P2;SDS_P1;SDS_P2;PMS_P1;PMS_P2;Temp;Humidity;BMP_temperature;BMP_pressure;BME280_temperature;BME280_humidity;BME280_pressure;Samples;Min_cycle;Max_cycle;Signal;HPM_P1;HPM_P2
2022/02/01 00:04:35;;;;;;;10.32;4.47;;;;;;;;;;6243705;28;20129;-81
2022/02/01 00:11:37;;;;;;;10.75;5.32;;;;;;;;;;6239785;28;20415;-79
2022/02/01 00:14:39;;;;;;;12.75;5.97;;;;;;;;;;6219079;28;20045;-82
2022/02/01 00:37:38;;;;;;;6.93;3.13;;;;;;;;;;6221610;28;20479;-84
2022/02/01 00:40:40;;;;;;;6.53;2.20;;;;;;;;;;6222682;28;20041;-82
2022/02/01 00:43:42;;;;;;;4.13;1.90;;;;;;;;;;6201725;28;20065;-82
2022/02/01 00:46:44;;;;;;;3.90;1.88;;;;;;;;;;6217064;28;20048;-83
2022/02/01 00:49:46;;;;;;;6.40;2.75;;;;;;;;;;6221516;28;20041;-83
2022/02/01 00:52:47;;;;;;;51.83;21.85;;;;;;;;;;6221776;28;20046;-83
2022/02/01 00:55:49;;;;;;;12.05;4.00;;;;;;;;;;6244706;28;20107;-83
2022/02/01 00:58:51;;;;;;;9.80;2.85;;;;;;;;;;6249012;28;20101;-80
2022/02/01 01:01:52;;;;;;;12.40;3.83;;;;;;;;;;6244341;28;20136;-83
2022/02/01 01:04:54;;;;;;;11.50;3.83;;;;;;;;;;6252857;28;20060;-82
2022/02/01 01:07:56;;;;;;;14.00;2.97;;;;;;;;;;6224781;28;20469;-82
2022/02/01 01:10:57;;;;;;;15.20;3.55;;;;;;;;;;6224081;28;20045;-81
2022/02/01 01:17:38;;;;;;;17.95;5.07;;;;;;;;;;6230607;28;20053;-83
2022/02/01 01:43:48;;;;;;;22.20;3.63;;;;;;;;;;6222813;28;20041;-81
2022/02/01 01:53:35;;;;;;;14.40;2.92;;;;;;;;;;6244484;28;20455;-83
2022/02/01 01:56:37;;;;;;;15.10;3.17;;;;;;;;;;6236253;28;20042;-82
2022/02/01 01:59:40;;;;;;;11.77;2.50;;;;;;;;;;6247102;28;20079;-83
2022/02/01 02:02:41;;;;;;;16.13;3.55;;;;;;;;;;6243901;28;20433;-83
2022/02/01 02:05:43;;;;;;;13.45;1.88;;;;;;;;;;6236126;28;20062;-83
2022/02/01 02:08:48;;;;;;;14.23;2.20;;;;;;;;;;6234501;28;20049;-82
2022/02/01 02:12:00;;;;;;;14.13;2.65;;;;;;;;;;6221695;28;20088;-83
2022/02/01 02:15:03;;;;;;;11.93;2.60;;;;;;;;;;6220492;28;20045;-83
2022/02/01 02:18:05;;;;;;;12.90;2.58;;;;;;;;;;6240685;28;20041;-80
2022/02/01 02:21:07;;;;;;;20.35;2.65;;;;;;;;;;6237050;28;20046;-82
2022/02/01 02:24:08;;;;;;;11.93;2.25;;;;;;;;;;6241838;28;20059;-82
2022/02/01 02:27:10;;;;;;;9.88;2.13;;;;;;;;;;6248333;28;20041;-82
2022/02/01 02:30:12;;;;;;;16.98;2.78;;;;;;;;;;6247122;28;20105;-80
2022/02/01 02:33:16;;;;;;;14.00;2.45;;;;;;;;;;6225105;28;20064;-83
2022/02/01 02:36:20;;;;;;;13.32;2.08;;;;;;;;;;6247184;28;20503;-83
2022/02/01 02:39:27;;;;;;;14.45;3.08;;;;;;;;;;6239330;28;20105;-82
2022/02/01 02:45:05;;;;;;;12.82;2.20;;;;;;;;;;6239076;28;20041;-83
2022/02/01 02:45:50;;;;;;;14.05;3.20;;;;;;;;;;6239322;28;20124;-82
2022/02/01 02:48:52;;;;;;;17.90;3.10;;;;;;;;;;6251243;28;20038;-83
2022/02/01 02:51:54;;;;;;;15.55;3.08;;;;;;;;;;6233847;28;20053;-83
2022/02/01 02:54:56;;;;;;;12.15;2.10;;;;;;;;;;6248712;28;20433;-81
2022/02/01 02:57:58;;;;;;;10.93;3.03;;;;;;;;;;6250035;28;20452;-83
2022/02/01 03:00:59;;;;;;;16.27;2.30;;;;;;;;;;6241958;28;20045;-82
2022/02/01 03:04:01;;;;;;;15.88;2.30;;;;;;;;;;6240233;28;20066;-83
2022/02/01 03:07:05;;;;;;;15.65;2.10;;;;;;;;;;6268898;28;20438;-83
2022/02/01 03:10:07;;;;;;;13.77;2.17;;;;;;;;;;6249779;28;20060;-83
2022/02/01 03:13:13;;;;;;;14.50;1.90;;;;;;;;;;6251436;28;20127;-82
2022/02/01 03:16:50;;;;;;;17.85;2.22;;;;;;;;;;6242757;28;20045;-82
2022/02/01 03:19:58;;;;;;;14.82;2.92;;;;;;;;;;6227409;28;20054;-83
2022/02/01 03:22:59;;;;;;;14.75;2.55;;;;;;;;;;6244263;28;20063;-81
2022/02/01 03:26:01;;;;;;;19.85;2.97;;;;;;;;;;6228659;28;20044;-82
2022/02/01 03:29:03;;;;;;;16.40;3.25;;;;;;;;;;6243805;28;20037;-83
2022/02/01 03:32:05;;;;;;;21.67;3.03;;;;;;;;;;6238293;28;20057;-83
2022/02/01 03:35:07;;;;;;;12.13;3.10;;;;;;;;;;6220682;28;20054;-81
2022/02/01 03:38:09;;;;;;;11.02;2.67;;;;;;;;;;6221156;28;20069;-81
2022/02/01 03:41:10;;;;;;;17.38;3.17;;;;;;;;;;6227187;28;20125;-81
2022/02/01 03:44:12;;;;;;;16.30;4.03;;;;;;;;;;6228117;28;20122;-83
2022/02/01 03:47:14;;;;;;;19.48;3.95;;;;;;;;;;6262302;28;20075;-80
2022/02/01 03:50:16;;;;;;;14.57;3.75;;;;;;;;;;6264251;28;20033;-80
2022/02/01 03:53:18;;;;;;;10.50;3.92;;;;;;;;;;6266550;28;20061;-81
2022/02/01 03:56:19;;;;;;;12.77;3.63;;;;;;;;;;6241449;28;20534;-80
2022/02/01 03:59:23;;;;;;;19.17;4.57;;;;;;;;;;6252911;28;20164;-81
2022/02/01 04:02:24;;;;;;;18.70;4.55;;;;;;;;;;6249064;28;20079;-82
2022/02/01 04:05:26;;;;;;;17.25;4.47;;;;;;;;;;6264245;28;20041;-81
2022/02/01 04:08:28;;;;;;;17.45;4.13;;;;;;;;;;6236937;28;20048;-82
2022/02/01 04:11:29;;;;;;;15.00;4.40;;;;;;;;;;6207052;28;20053;-83
2022/02/01 04:14:33;;;;;;;14.70;4.03;;;;;;;;;;6223597;28;20044;-83
2022/02/01 04:17:37;;;;;;;13.80;4.60;;;;;;;;;;6248470;28;20045;-82
2022/02/01 04:20:39;;;;;;;16.95;4.88;;;;;;;;;;6247412;28;20544;-82
2022/02/01 04:23:41;;;;;;;12.77;4.40;;;;;;;;;;6248812;28;20421;-83
2022/02/01 04:26:42;;;;;;;18.35;4.40;;;;;;;;;;6237422;28;20058;-82
2022/02/01 04:29:50;;;;;;;12.55;3.80;;;;;;;;;;6224120;28;20096;-81
2022/02/01 04:32:54;;;;;;;11.20;4.03;;;;;;;;;;6221846;28;20054;-82
2022/02/01 04:35:55;;;;;;;15.73;4.32;;;;;;;;;;6213668;28;20042;-81
2022/02/01 04:38:57;;;;;;;16.10;4.50;;;;;;;;;;6223411;28;20049;-82
2022/02/01 04:41:59;;;;;;;14.13;4.20;;;;;;;;;;6223895;28;20073;-84
2022/02/01 04:45:02;;;;;;;16.65;4.40;;;;;;;;;;6224374;28;20118;-81
2022/02/01 04:48:03;;;;;;;13.60;4.45;;;;;;;;;;6248804;28;20057;-82
2022/02/01 04:51:05;;;;;;;13.73;3.78;;;;;;;;;;6250618;28;20125;-83
2022/02/01 04:54:08;;;;;;;14.48;4.28;;;;;;;;;;6240106;28;20050;-82
2022/02/01 04:57:09;;;;;;;11.52;4.45;;;;;;;;;;6244058;28;20144;-80
2022/02/01 05:00:12;;;;;;;16.75;4.82;;;;;;;;;;6243497;28;20097;-82
2022/02/01 05:03:14;;;;;;;15.40;4.38;;;;;;;;;;6247506;28;20045;-80
2022/02/01 05:06:16;;;;;;;13.27;4.43;;;;;;;;;;6230123;28;20041;-81
2022/02/01 05:09:18;;;;;;;16.98;4.57;;;;;;;;;;6244609;28;20837;-80
2022/02/01 05:12:20;;;;;;;14.05;4.43;;;;;;;;;;6231483;28;20033;-79
2022/02/01 05:15:22;;;;;;;19.98;5.03;;;;;;;;;;6232353;28;20156;-80
2022/02/01 05:18:25;;;;;;;10.02;3.75;;;;;;;;;;6221638;28;20049;-81
2022/02/01 05:21:27;;;;;;;13.95;4.20;;;;;;;;;;6237305;28;20168;-82
2022/02/01 05:24:30;;;;;;;13.27;3.88;;;;;;;;;;6221622;28;20080;-81
2022/02/01 05:27:31;;;;;;;11.63;4.00;;;;;;;;;;6222105;28;20048;-82
2022/02/01 05:30:33;;;;;;;12.95;3.75;;;;;;;;;;6222797;28;20069;-80
2022/02/01 05:33:35;;;;;;;16.27;4.05;;;;;;;;;;6223499;28;20046;-80
2022/02/01 05:36:37;;;;;;;12.60;3.60;;;;;;;;;;6199101;28;20395;-81
2022/02/01 05:39:39;;;;;;;17.42;3.63;;;;;;;;;;6201283;28;20453;-80
2022/02/01 05:42:54;;;;;;;11.45;3.40;;;;;;;;;;6199651;28;20467;-82
2022/02/01 05:45:57;;;;;;;11.07;3.70;;;;;;;;;;6217174;28;20120;-82
2022/02/01 05:48:59;;;;;;;11.57;2.92;;;;;;;;;;6225655;28;20454;-82
2022/02/01 05:52:01;;;;;;;10.77;3.33;;;;;;;;;;6221967;28;20093;-82
2022/02/01 05:55:03;;;;;;;12.15;2.75;;;;;;;;;;6242507;28;20051;-80
2022/02/01 05:58:05;;;;;;;11.30;3.35;;;;;;;;;;6229050;28;20065;-81
2022/02/01 06:01:07;;;;;;;6.53;2.75;;;;;;;;;;6221320;28;20056;-82
2022/02/01 06:04:09;;;;;;;7.95;2.67;;;;;;;;;;6219729;28;20046;-80
2022/02/01 06:07:10;;;;;;;8.75;2.75;;;;;;;;;;6220347;28;20045;-80
2022/02/01 06:10:13;;;;;;;9.00;2.45;;;;;;;;;;6218281;28;20045;-80
2022/02/01 06:13:14;;;;;;;11.98;3.30;;;;;;;;;;6222734;28;20117;-82
2022/02/01 06:16:16;;;;;;;8.20;3.15;;;;;;;;;;6215052;28;20053;-82
2022/02/01 06:19:18;;;;;;;6.28;2.65;;;;;;;;;;6200081;28;20046;-80
2022/02/01 06:22:19;;;;;;;12.35;3.13;;;;;;;;;;6202624;28;20053;-79
2022/02/01 06:25:43;;;;;;;8.18;3.13;;;;;;;;;;6213340;28;20515;-81
2022/02/01 06:28:43;;;;;;;5.72;2.80;;;;;;;;;;6228452;28;20421;-81
2022/02/01 06:31:44;;;;;;;14.68;3.50;;;;;;;;;;6218260;28;20133;-82
2022/02/01 06:34:47;;;;;;;14.98;3.92;;;;;;;;;;6204158;28;20053;-80
2022/02/01 06:37:48;;;;;;;14.15;3.25;;;;;;;;;;6202938;28;20068;-79
2022/02/01 06:40:50;;;;;;;10.43;3.83;;;;;;;;;;6217868;28;20056;-81
2022/02/01 06:43:51;;;;;;;9.05;3.55;;;;;;;;;;6204770;28;20046;-81
2022/02/01 06:46:53;;;;;;;9.57;4.22;;;;;;;;;;6219221;28;20093;-81
2022/02/01 06:49:55;;;;;;;16.02;5.30;;;;;;;;;;6224872;28;20045;-81
2022/02/01 06:52:58;;;;;;;10.40;3.50;;;;;;;;;;6225920;28;20511;-79
2022/02/01 06:56:08;;;;;;;8.48;3.45;;;;;;;;;;6239352;28;20613;-81
2022/02/01 06:59:10;;;;;;;13.40;3.88;;;;;;;;;;6215530;28;20137;-81
2022/02/01 07:02:11;;;;;;;7.72;3.50;;;;;;;;;;6242874;28;20091;-81
2022/02/01 07:05:13;;;;;;;8.90;3.22;;;;;;;;;;6249798;28;20047;-80
2022/02/01 07:08:15;;;;;;;10.93;4.13;;;;;;;;;;6250165;28;20498;-82
2022/02/01 07:11:18;;;;;;;11.25;4.13;;;;;;;;;;6240224;28;20097;-80
2022/02/01 07:14:20;;;;;;;;;;;;;;;;;;6226775;28;20105;-81
2022/02/01 07:17:21;;;;;;;7.32;3.25;;;;;;;;;;6224142;28;20008;-79
2022/02/01 07:20:25;;;;;;;9.35;3.13;;;;;;;;;;6223394;28;20057;-79
2022/02/01 07:23:27;;;;;;;8.73;3.05;;;;;;;;;;6223254;28;20037;-79
2022/02/01 07:26:32;;;;;;;6.05;3.00;;;;;;;;;;6246560;28;20055;-80
2022/02/01 07:29:34;;;;;;;15.43;3.30;;;;;;;;;;6245736;28;20048;-78
2022/02/01 07:32:36;;;;;;;7.80;3.03;;;;;;;;;;6243438;28;20063;-79
2022/02/01 07:35:39;;;;;;;8.27;3.35;;;;;;;;;;6245966;28;20053;-79
2022/02/01 07:38:40;;;;;;;7.80;3.50;;;;;;;;;;6242838;28;20148;-81
2022/02/01 07:41:42;;;;;;;3.97;2.47;;;;;;;;;;6221907;28;20052;-81
2022/02/01 07:44:44;;;;;;;8.18;2.80;;;;;;;;;;6224022;28;20042;-82
2022/02/01 07:47:45;;;;;;;7.75;3.03;;;;;;;;;;6242798;28;20061;-82
2022/02/01 07:50:47;;;;;;;9.13;3.25;;;;;;;;;;6246790;28;20084;-80
2022/02/01 07:53:49;;;;;;;5.50;2.70;;;;;;;;;;6245867;28;20045;-80
2022/02/01 07:56:50;;;;;;;9.25;3.05;;;;;;;;;;6246963;28;20045;-80
2022/02/01 07:59:53;;;;;;;8.75;2.97;;;;;;;;;;6249037;28;20046;-80
2022/02/01 08:02:55;;;;;;;8.18;2.88;;;;;;;;;;6238604;28;20562;-83
2022/02/01 08:05:58;;;;;;;7.23;2.77;;;;;;;;;;6235196;28;20056;-80
2022/02/01 08:09:05;;;;;;;8.32;3.05;;;;;;;;;;6251481;28;20056;-82
2022/02/01 08:12:18;;;;;;;9.38;3.35;;;;;;;;;;6226234;28;20054;-81
2022/02/01 08:16:04;;;;;;;7.13;2.78;;;;;;;;;;6225585;28;20049;-83
2022/02/01 08:19:10;;;;;;;8.88;2.50;;;;;;;;;;6246675;28;20038;-83
2022/02/01 08:22:35;;;;;;;13.50;3.35;;;;;;;;;;6251501;28;20042;-82
2022/02/01 08:25:38;;;;;;;10.02;2.67;;;;;;;;;;6233138;28;20042;-81
2022/02/01 08:28:40;;;;;;;10.20;2.77;;;;;;;;;;6224322;28;20045;-81
2022/02/01 08:31:41;;;;;;;7.97;3.10;;;;;;;;;;6226001;28;20052;-81
2022/02/01 08:34:43;;;;;;;9.50;2.80;;;;;;;;;;6225474;28;20125;-79
2022/02/01 08:37:46;;;;;;;6.97;2.55;;;;;;;;;;6241031;28;20049;-82
2022/02/01 08:41:07;;;;;;;8.10;2.72;;;;;;;;;;6247770;28;20052;-81
2022/02/01 08:44:09;;;;;;;10.40;2.60;;;;;;;;;;6245916;28;20053;-83
2022/02/01 08:47:12;;;;;;;7.22;2.05;;;;;;;;;;6238604;28;20049;-82
2022/02/01 08:50:16;;;;;;;10.35;2.35;;;;;;;;;;6244287;28;20045;-84
2022/02/01 08:53:24;;;;;;;6.75;2.20;;;;;;;;;;6241718;28;20124;-81
2022/02/01 09:00:11;;;;;;;5.15;2.15;;;;;;;;;;6241831;28;20538;-81
2022/02/01 09:03:15;;;;;;;7.95;1.95;;;;;;;;;;6203007;28;20149;-82
2022/02/01 09:06:21;;;;;;;6.70;2.42;;;;;;;;;;6236208;28;20046;-78
2022/02/01 09:09:23;;;;;;;7.68;2.20;;;;;;;;;;6229605;28;20041;-81
2022/02/01 09:12:24;;;;;;;7.45;2.17;;;;;;;;;;6245530;28;20045;-81
2022/02/01 09:15:28;;;;;;;8.85;2.50;;;;;;;;;;6241814;28;20046;-79
2022/02/01 09:18:29;;;;;;;5.07;1.90;;;;;;;;;;6222080;28;20050;-83
2022/02/01 09:21:31;;;;;;;11.05;2.40;;;;;;;;;;6220616;28;20156;-80
2022/02/01 09:24:33;;;;;;;6.13;2.58;;;;;;;;;;6237182;28;20062;-81
2022/02/01 09:27:35;;;;;;;7.32;2.25;;;;;;;;;;6212816;28;20664;-82
2022/02/01 09:30:39;;;;;;;7.28;2.22;;;;;;;;;;6223084;28;20052;-80
2022/02/01 09:33:40;;;;;;;6.05;2.63;;;;;;;;;;6242775;28;20049;-80
2022/02/01 09:36:43;;;;;;;7.78;3.28;;;;;;;;;;6245032;28;20049;-82
2022/02/01 09:39:44;;;;;;;6.03;1.92;;;;;;;;;;6241280;28;20124;-80
2022/02/01 09:42:46;;;;;;;6.93;2.33;;;;;;;;;;6198434;28;20046;-82
2022/02/01 09:45:52;;;;;;;8.02;2.80;;;;;;;;;;6232246;28;20053;-80
2022/02/01 09:49:16;;;;;;;5.97;2.15;;;;;;;;;;6234969;28;20049;-80
2022/02/01 09:52:21;;;;;;;9.10;2.70;;;;;;;;;;6247405;28;20494;-80
2022/02/01 09:55:23;;;;;;;4.70;2.45;;;;;;;;;;6211903;28;20132;-81
2022/02/01 09:58:36;;;;;;;3.83;1.75;;;;;;;;;;6231166;28;20125;-80
2022/02/01 10:01:44;;;;;;;11.52;2.90;;;;;;;;;;6235589;28;20046;-82
2022/02/01 10:05:01;;;;;;;4.60;2.45;;;;;;;;;;6221117;28;20123;-81
2022/02/01 10:08:03;;;;;;;8.27;2.70;;;;;;;;;;6221431;28;20060;-79
2022/02/01 10:11:09;;;;;;;;;;;;;;;;;;6214862;28;20057;-81
2022/02/01 10:14:23;;;;;;;7.50;3.10;;;;;;;;;;6244825;28;19921;-80
2022/02/01 10:17:26;;;;;;;3.53;2.42;;;;;;;;;;6220506;28;20121;-82
2022/02/01 10:20:42;;;;;;;9.25;2.80;;;;;;;;;;6221386;28;20056;-82
2022/02/01 10:23:45;;;;;;;9.00;3.75;;;;;;;;;;6216818;28;20062;-81
2022/02/01 10:26:50;;;;;;;10.50;3.38;;;;;;;;;;6197520;28;20042;-80
2022/02/01 10:30:18;;;;;;;9.77;3.42;;;;;;;;;;6196726;28;20052;-79
2022/02/01 10:36:48;;;;;;;8.60;3.72;;;;;;;;;;6197143;28;20046;-82
2022/02/01 10:40:02;;;;;;;5.75;2.67;;;;;;;;;;6197289;28;20058;-81
2022/02/01 10:43:24;;;;;;;8.45;2.78;;;;;;;;;;6233139;28;20056;-81
2022/02/01 10:46:25;;;;;;;5.65;2.67;;;;;;;;;;6215283;28;20157;-81
2022/02/01 10:49:30;;;;;;;6.45;2.58;;;;;;;;;;6243690;28;20056;-81
2022/02/01 10:52:34;;;;;;;9.10;3.47;;;;;;;;;;6240682;28;20110;-80
2022/02/01 10:55:36;;;;;;;9.52;3.50;;;;;;;;;;6229179;28;20303;-81
2022/02/01 10:58:38;;;;;;;6.68;3.03;;;;;;;;;;6243582;28;20448;-81
2022/02/01 11:01:41;;;;;;;4.97;2.35;;;;;;;;;;6218798;28;20074;-81
2022/02/01 11:04:44;;;;;;;4.65;2.83;;;;;;;;;;6207797;28;20049;-82
2022/02/01 11:07:52;;;;;;;3.53;2.20;;;;;;;;;;6209245;28;20074;-82
2022/02/01 11:10:55;;;;;;;6.13;2.35;;;;;;;;;;6220772;28;20045;-79
2022/02/01 11:13:56;;;;;;;4.15;2.70;;;;;;;;;;6259981;28;20113;-81
2022/02/01 11:17:13;;;;;;;4.57;2.60;;;;;;;;;;6233105;28;20069;-79
2022/02/01 11:20:29;;;;;;;3.53;2.25;;;;;;;;;;6249822;28;20042;-77
2022/02/01 11:23:47;;;;;;;3.83;2.30;;;;;;;;;;6209711;28;20092;-81
2022/02/01 11:27:02;;;;;;;5.80;2.30;;;;;;;;;;6240098;28;20048;-83
2022/02/01 11:30:12;;;;;;;4.90;2.45;;;;;;;;;;6237822;28;20084;-80
2022/02/01 11:33:14;;;;;;;4.90;2.58;;;;;;;;;;6221543;28;20045;-79
2022/02/01 11:36:15;;;;;;;2.72;2.00;;;;;;;;;;6237365;28;20121;-80
2022/02/01 11:39:17;;;;;;;4.70;2.90;;;;;;;;;;6237369;28;20410;-80
2022/02/01 11:42:22;;;;;;;5.13;2.60;;;;;;;;;;6218859;28;20088;-81
2022/02/01 11:45:31;;;;;;;3.00;2.03;;;;;;;;;;6226070;28;20180;-79
2022/02/01 11:48:40;;;;;;;5.25;2.67;;;;;;;;;;6222153;28;20034;-80
2022/02/01 11:51:41;;;;;;;5.03;2.40;;;;;;;;;;6222772;28;20069;-80
2022/02/01 11:54:47;;;;;;;5.32;2.47;;;;;;;;;;6221766;28;20050;-80
2022/02/01 11:57:51;;;;;;;6.00;2.55;;;;;;;;;;6235075;28;20053;-81
2022/02/01 12:00:53;;;;;;;3.80;2.42;;;;;;;;;;6235410;28;20042;-81
2022/02/01 12:04:17;;;;;;;4.85;2.85;;;;;;;;;;6222210;28;20121;-81
2022/02/01 12:07:24;;;;;;;7.03;4.97;;;;;;;;;;6221309;28;20046;-80
2022/02/01 12:10:26;;;;;;;7.15;3.08;;;;;;;;;;6217824;28;20411;-79
2022/02/01 12:13:31;;;;;;;5.78;2.72;;;;;;;;;;6221259;28;20073;-81
2022/02/01 12:16:33;;;;;;;3.63;2.40;;;;;;;;;;6207634;28;20064;-80
2022/02/01 12:19:48;;;;;;;3.92;2.35;;;;;;;;;;6215360;28;20057;-81
2022/02/01 12:23:17;;;;;;;4.18;2.53;;;;;;;;;;6216292;28;20041;-81
2022/02/01 12:26:36;;;;;;;4.82;2.95;;;;;;;;;;6215675;28;20129;-79
2022/02/01 12:29:37;;;;;;;3.28;1.67;;;;;;;;;;6216586;28;20116;-79
2022/02/01 12:32:50;;;;;;;4.13;2.78;;;;;;;;;;6230384;28;20045;-80
2022/02/01 12:35:54;;;;;;;7.05;3.17;;;;;;;;;;6216211;28;20046;-78
2022/02/01 12:39:03;;;;;;;4.15;2.70;;;;;;;;;;6209081;28;20041;-80
2022/02/01 12:48:32;;;;;;;6.22;2.65;;;;;;;;;;6193428;28;20046;-83
2022/02/01 12:51:39;;;;;;;4.07;2.75;;;;;;;;;;6197481;28;20066;-81
2022/02/01 12:54:40;;;;;;;5.40;2.47;;;;;;;;;;6210013;28;20380;-80
2022/02/01 12:57:44;;;;;;;4.18;2.38;;;;;;;;;;6220136;28;20478;-82
2022/02/01 13:00:52;;;;;;;2.65;1.83;;;;;;;;;;6212641;28;20057;-81
2022/02/01 13:03:54;;;;;;;2.47;1.73;;;;;;;;;;6195040;28;20050;-80
2022/02/01 13:06:56;;;;;;;5.13;2.05;;;;;;;;;;6215505;28;20196;-81
2022/02/01 13:16:46;;;;;;;2.53;1.40;;;;;;;;;;6234521;28;20038;-78
2022/02/01 13:20:06;;;;;;;1.80;1.20;;;;;;;;;;6218663;28;20053;-80
2022/02/01 13:23:34;;;;;;;1.58;1.33;;;;;;;;;;6238746;28;20045;-82
2022/02/01 13:26:37;;;;;;;1.10;0.90;;;;;;;;;;6220854;28;20144;-81
2022/02/01 13:29:39;;;;;;;1.52;1.10;;;;;;;;;;6229450;28;20103;-79
2022/02/01 13:32:42;;;;;;;1.17;0.80;;;;;;;;;;6231825;28;20038;-81
2022/02/01 13:36:10;;;;;;;3.25;1.40;;;;;;;;;;6229680;28;20061;-80
2022/02/01 13:39:33;;;;;;;1.05;0.95;;;;;;;;;;6234544;28;20077;-78
2022/02/01 13:42:37;;;;;;;1.40;1.00;;;;;;;;;;6228395;28;20053;-78
2022/02/01 13:45:42;;;;;;;2.58;0.75;;;;;;;;;;6235104;28;20048;-81
2022/02/01 13:48:44;;;;;;;0.80;0.80;;;;;;;;;;6231443;28;20056;-78
2022/02/01 13:51:51;;;;;;;0.80;0.80;;;;;;;;;;6219402;28;20046;-81
2022/02/01 13:54:52;;;;;;;0.75;0.73;;;;;;;;;;6218078;28;20038;-81
2022/02/01 13:58:17;;;;;;;0.63;0.63;;;;;;;;;;6223232;28;20052;-81
2022/02/01 14:01:20;;;;;;;0.57;0.57;;;;;;;;;;6241607;28;20046;-81
2022/02/01 14:05:04;;;;;;;1.27;0.70;;;;;;;;;;6225643;28;20053;-82
2022/02/01 14:08:22;;;;;;;2.15;1.13;;;;;;;;;;6239616;28;20049;-82
2022/02/01 14:16:13;;;;;;;0.68;0.68;;;;;;;;;;6240739;28;20047;-79
2022/02/01 14:34:42;;;;;;;1.23;0.80;;;;;;;;;;6237033;28;20133;-83
2022/02/01 14:38:12;;;;;;;0.70;0.50;;;;;;;;;;6235652;28;20101;-80
2022/02/01 14:44:45;;;;;;;0.80;0.40;;;;;;;;;;6241617;28;20056;-81
2022/02/01 14:47:46;;;;;;;0.50;0.47;;;;;;;;;;6256133;28;20464;-81
2022/02/01 14:50:48;;;;;;;0.82;0.50;;;;;;;;;;6228282;28;20069;-82
2022/02/01 14:53:50;;;;;;;0.88;0.60;;;;;;;;;;6210505;28;20436;-81
2022/02/01 14:56:57;;;;;;;0.28;0.17;;;;;;;;;;6234012;28;20583;-80
2022/02/01 15:13:38;;;;;;;0.52;0.30;;;;;;;;;;6183789;28;20048;-81
2022/02/01 15:16:58;;;;;;;0.20;0.20;;;;;;;;;;6225289;28;20045;-80
2022/02/01 15:19:59;;;;;;;0.40;0.20;;;;;;;;;;6227260;28;20050;-79
2022/02/01 15:23:02;;;;;;;0.10;0.10;;;;;;;;;;6227867;28;20044;-82
2022/02/01 15:26:04;;;;;;;0.10;0.10;;;;;;;;;;6209958;28;20119;-81
2022/02/01 15:29:06;;;;;;;0.10;0.10;;;;;;;;;;6225132;28;20060;-80
2022/02/01 15:32:08;;;;;;;0.10;0.10;;;;;;;;;;6241415;28;20042;-81
2022/02/01 15:35:31;;;;;;;0.10;0.10;;;;;;;;;;6240866;28;20060;-79
2022/02/01 15:38:40;;;;;;;0.50;0.30;;;;;;;;;;6225982;28;20041;-78
2022/02/01 15:58:24;;;;;;;0.13;0.13;;;;;;;;;;6243071;28;20052;-80
2022/02/01 16:02:11;;;;;;;0.20;0.20;;;;;;;;;;6236016;28;20049;-78
2022/02/01 16:05:09;;;;;;;0.30;0.30;;;;;;;;;;6224257;28;20605;-81
2022/02/01 16:08:21;;;;;;;0.30;0.30;;;;;;;;;;6236399;28;20644;-80
2022/02/01 16:11:24;;;;;;;0.63;0.40;;;;;;;;;;6245696;28;20053;-80
2022/02/01 16:14:26;;;;;;;;;;;;;;;;;;6247929;28;20051;-80
2022/02/01 16:17:28;;;;;;;0.45;0.45;;;;;;;;;;6238021;28;20014;-80
2022/02/01 16:20:30;;;;;;;1.15;0.60;;;;;;;;;;6246448;28;20101;-77
2022/02/01 16:23:32;;;;;;;0.77;0.65;;;;;;;;;;6241586;28;20073;-79
2022/02/01 16:26:34;;;;;;;1.95;1.00;;;;;;;;;;6223610;28;20042;-79
2022/02/01 16:29:36;;;;;;;1.27;0.77;;;;;;;;;;6213639;28;20048;-80
2022/02/01 16:32:38;;;;;;;0.85;0.70;;;;;;;;;;6218503;28;20462;-79
2022/02/01 16:35:41;;;;;;;1.02;0.75;;;;;;;;;;6224832;28;20049;-80
2022/02/01 16:38:44;;;;;;;0.80;0.70;;;;;;;;;;6222507;28;20124;-80
2022/02/01 16:41:52;;;;;;;0.77;0.70;;;;;;;;;;6222080;28;20344;-82
2022/02/01 16:45:16;;;;;;;1.23;0.90;;;;;;;;;;6200332;28;20066;-81
2022/02/01 16:48:30;;;;;;;1.83;1.40;;;;;;;;;;6213868;28;20050;-80
2022/02/01 16:51:33;;;;;;;1.90;1.48;;;;;;;;;;6226489;28;20065;-81
2022/02/01 16:54:44;;;;;;;5.37;2.30;;;;;;;;;;6240100;28;20053;-79
2022/02/01 16:57:51;;;;;;;3.67;2.22;;;;;;;;;;6220299;28;20456;-79
2022/02/01 17:00:55;;;;;;;6.18;2.47;;;;;;;;;;6247719;28;20059;-80
2022/02/01 17:03:57;;;;;;;5.75;2.67;;;;;;;;;;6226856;28;20049;-81
2022/02/01 17:06:59;;;;;;;3.35;2.42;;;;;;;;;;6223120;28;20101;-81
2022/02/01 17:10:01;;;;;;;5.07;2.90;;;;;;;;;;6213458;28;20598;-80
2022/02/01 17:13:10;;;;;;;6.10;3.15;;;;;;;;;;6195801;28;20053;-80
2022/02/01 17:16:29;;;;;;;6.70;3.03;;;;;;;;;;6219595;28;20137;-79
2022/02/01 17:22:32;;;;;;;5.90;2.72;;;;;;;;;;6219182;28;20061;-80
2022/02/01 17:25:34;;;;;;;3.50;2.65;;;;;;;;;;6231807;28;20458;-81
2022/02/01 17:28:35;;;;;;;3.35;2.20;;;;;;;;;;6231353;28;20053;-79
2022/02/01 17:31:37;;;;;;;4.30;2.40;;;;;;;;;;6214761;28;20041;-79
2022/02/01 17:34:39;;;;;;;5.88;2.88;;;;;;;;;;6214283;28;20049;-80
2022/02/01 17:37:41;;;;;;;4.18;2.83;;;;;;;;;;6239159;28;20049;-81
2022/02/01 17:40:43;;;;;;;3.03;2.00;;;;;;;;;;6241636;28;20052;-82
2022/02/01 17:43:45;;;;;;;2.47;2.07;;;;;;;;;;6239184;28;20752;-82
2022/02/01 17:46:49;;;;;;;2.08;1.67;;;;;;;;;;6232164;28;20046;-78
2022/02/01 17:49:51;;;;;;;3.45;1.60;;;;;;;;;;6245972;28;20045;-78
2022/02/01 17:53:02;;;;;;;2.88;2.05;;;;;;;;;;6227771;28;20073;-81
2022/02/01 17:56:05;;;;;;;4.28;2.40;;;;;;;;;;6223989;28;20477;-82
2022/02/01 17:59:06;;;;;;;5.93;3.50;;;;;;;;;;6238671;28;20059;-79
2022/02/01 18:02:08;;;;;;;6.55;3.45;;;;;;;;;;6240080;28;20048;-81
2022/02/01 18:05:10;;;;;;;5.97;3.50;;;;;;;;;;6242608;28;20045;-82
2022/02/01 18:08:12;;;;;;;5.35;3.10;;;;;;;;;;6239759;28;20124;-80
2022/02/01 18:11:13;;;;;;;9.50;3.17;;;;;;;;;;6226023;28;20058;-81
2022/02/01 18:17:21;;;;;;;6.15;3.33;;;;;;;;;;6237814;28;20052;-79
2022/02/01 18:20:24;;;;;;;3.55;2.60;;;;;;;;;;6221734;28;20045;-81
2022/02/01 18:23:30;;;;;;;4.00;2.60;;;;;;;;;;6240247;28;20057;-82
2022/02/01 18:26:32;;;;;;;4.65;2.45;;;;;;;;;;6240493;28;20742;-82
2022/02/01 18:29:37;;;;;;;5.30;2.53;;;;;;;;;;6225828;28;20050;-80
2022/02/01 18:32:39;;;;;;;3.95;2.28;;;;;;;;;;6242571;28;20057;-80
2022/02/01 18:35:47;;;;;;;4.32;1.85;;;;;;;;;;6245525;28;20340;-80
2022/02/01 18:39:08;;;;;;;4.57;1.92;;;;;;;;;;6243722;28;20092;-81
2022/02/01 18:42:15;;;;;;;4.35;1.90;;;;;;;;;;6229818;28;20109;-80
2022/02/01 18:45:18;;;;;;;3.95;1.90;;;;;;;;;;6233252;28;20068;-82
2022/02/01 18:48:21;;;;;;;4.65;2.30;;;;;;;;;;6243096;28;20384;-78
2022/02/01 18:55:00;;;;;;;8.05;3.92;;;;;;;;;;6233704;28;20270;-77
2022/02/01 18:58:09;;;;;;;8.18;3.22;;;;;;;;;;6236830;28;20075;-82
2022/02/01 19:05:12;;;;;;;7.60;2.97;;;;;;;;;;6234077;28;20053;-80
2022/02/01 19:08:20;;;;;;;9.27;3.78;;;;;;;;;;6223481;28;20414;-83
2022/02/01 19:14:46;;;;;;;13.75;3.90;;;;;;;;;;6261672;28;20041;-80
2022/02/01 19:17:50;;;;;;;11.70;3.33;;;;;;;;;;6227225;28;20054;-81
2022/02/01 19:20:53;;;;;;;10.07;3.05;;;;;;;;;;6238063;28;20684;-83
2022/02/01 19:23:58;;;;;;;6.72;2.65;;;;;;;;;;6238622;28;20115;-81
2022/02/01 19:27:02;;;;;;;10.32;2.95;;;;;;;;;;6239365;28;20054;-82
2022/02/01 19:30:05;;;;;;;7.43;3.03;;;;;;;;;;6233887;28;20049;-82
2022/02/01 19:33:09;;;;;;;7.30;3.17;;;;;;;;;;6239005;28;20077;-80
2022/02/01 19:36:12;;;;;;;5.20;2.33;;;;;;;;;;6253188;28;20116;-81
2022/02/01 19:39:18;;;;;;;4.90;2.25;;;;;;;;;;6233490;28;20136;-81
2022/02/01 19:42:20;;;;;;;5.07;2.20;;;;;;;;;;6243965;28;20128;-79
2022/02/01 19:45:24;;;;;;;6.57;2.55;;;;;;;;;;6247463;28;20049;-82
2022/02/01 19:48:26;;;;;;;7.10;2.00;;;;;;;;;;6221698;28;20049;-81
2022/02/01 19:51:28;;;;;;;5.75;2.10;;;;;;;;;;6221294;28;20298;-83
2022/02/01 19:54:31;;;;;;;6.00;2.40;;;;;;;;;;6222385;28;20045;-79
2022/02/01 19:57:33;;;;;;;;;;;;;;;;;;6212739;28;20072;-83
2022/02/01 20:00:44;;;;;;;4.95;1.90;;;;;;;;;;6243999;28;19928;-83
2022/02/01 20:03:49;;;;;;;3.83;1.90;;;;;;;;;;6245954;28;20053;-83
2022/02/01 20:06:53;;;;;;;6.82;2.25;;;;;;;;;;6245720;28;20045;-83
2022/02/01 20:10:18;;;;;;;5.78;2.28;;;;;;;;;;6229093;28;20045;-80
2022/02/01 20:13:22;;;;;;;8.07;2.53;;;;;;;;;;6250516;28;20100;-80
2022/02/01 20:16:51;;;;;;;8.00;2.53;;;;;;;;;;6227894;28;20545;-81
2022/02/01 20:19:56;;;;;;;10.73;2.75;;;;;;;;;;6193834;28;20065;-80
2022/02/01 20:23:00;;;;;;;14.10;3.83;;;;;;;;;;6209516;28;20049;-83
2022/02/01 20:26:05;;;;;;;12.25;5.55;;;;;;;;;;6196501;28;20049;-82
2022/02/01 20:29:26;;;;;;;18.55;7.22;;;;;;;;;;6204484;28;20096;-82
2022/02/01 20:32:30;;;;;;;16.15;5.07;;;;;;;;;;6216183;28;20120;-81
2022/02/01 20:35:34;;;;;;;40.45;11.50;;;;;;;;;;6216341;28;20046;-80
2022/02/01 20:38:42;;;;;;;28.20;8.85;;;;;;;;;;6196321;28;20047;-81
2022/02/01 20:41:45;;;;;;;46.30;12.77;;;;;;;;;;6200134;28;20038;-83
2022/02/01 20:44:47;;;;;;;20.83;6.03;;;;;;;;;;6201064;28;20113;-83
2022/02/01 20:47:49;;;;;;;25.48;7.97;;;;;;;;;;6220029;28;20044;-83
2022/02/01 20:50:51;;;;;;;20.13;6.95;;;;;;;;;;6196642;28;20045;-80
2022/02/01 20:53:52;;;;;;;59.65;20.30;;;;;;;;;;6211809;28;20044;-81
2022/02/01 20:56:54;;;;;;;17.13;5.40;;;;;;;;;;6210545;28;20183;-81